sensor_id;sensor_type;location;lat;lon;timestamp;temperature;humidity
53422;DHT22;39319;52.944;5.928;2023-11-21T00:01:19;12.00;99.90
53422;DHT22;39319;52.944;5.928;2023-11-21T00:03:45;11.90;99.90
53422;DHT22;39319;52.944;5.928;2023-11-21T00:06:10;11.80;99.90
53422;DHT22;39319;52.944;5.928;2023-11-21T00:08:37;11.80;99.90
53422;DHT22;39319;52.944;5.928;2023-11-21T00:11:03;11.80;99.90
53422;DHT22;39319;52.944;5.928;2023-11-21T00:13:31;11.90;99.90
53422;DHT22;39319;52.944;5.928;2023-11-21T00:15:58;11.80;99.90
53422;DHT22;39319;52.944;5.928;2023-11-21T00:18:23;11.80;99.90
53422;DHT22;39319;52.944;5.928;2023-11-21T00:20:49;12.00;99.90
53422;DHT22;39319;52.944;5.928;2023-11-21T00:23:15;11.90;99.90
53422;DHT22;39319;52.944;5.928;2023-11-21T00:25:40;11.70;99.90
53422;DHT22;39319;52.944;5.928;2023-11-21T00:28:07;11.80;99.90
53422;DHT22;39319;52.944;5.928;2023-11-21T00:30:33;11.90;99.90
53422;DHT22;39319;52.944;5.928;2023-11-21T00:32:58;11.80;99.90
53422;DHT22;39319;52.944;5.928;2023-11-21T00:35:24;11.80;99.90
53422;DHT22;39319;52.944;5.928;2023-11-21T00:37:50;11.80;99.90
53422;DHT22;39319;52.944;5.928;2023-11-21T00:40:16;11.80;99.90
53422;DHT22;39319;52.944;5.928;2023-11-21T00:42:44;11.80;99.90
53422;DHT22;39319;52.944;5.928;2023-11-21T00:45:10;11.80;99.90
53422;DHT22;39319;52.944;5.928;2023-11-21T00:47:36;11.80;99.90
53422;DHT22;39319;52.944;5.928;2023-11-21T00:50:04;11.80;99.90
53422;DHT22;39319;52.944;5.928;2023-11-21T00:52:32;11.80;99.90
53422;DHT22;39319;52.944;5.928;2023-11-21T00:54:57;11.80;99.90
53422;DHT22;39319;52.944;5.928;2023-11-21T00:57:26;11.80;99.90
53422;DHT22;39319;52.944;5.928;2023-11-21T00:59:52;11.90;99.90
53422;DHT22;39319;52.944;5.928;2023-11-21T01:02:18;11.80;99.90
53422;DHT22;39319;52.944;5.928;2023-11-21T01:04:44;11.70;99.90
53422;DHT22;39319;52.944;5.928;2023-11-21T01:07:09;11.90;99.90
53422;DHT22;39319;52.944;5.928;2023-11-21T01:09:35;11.80;99.90
53422;DHT22;39319;52.944;5.928;2023-11-21T01:12:01;11.80;99.90
53422;DHT22;39319;52.944;5.928;2023-11-21T01:14:27;11.80;99.90
53422;DHT22;39319;52.944;5.928;2023-11-21T01:16:53;11.80;99.90
53422;DHT22;39319;52.944;5.928;2023-11-21T01:19:19;11.80;99.90
53422;DHT22;39319;52.944;5.928;2023-11-21T01:21:45;11.60;99.90
53422;DHT22;39319;52.944;5.928;2023-11-21T01:24:10;11.80;99.90
53422;DHT22;39319;52.944;5.928;2023-11-21T01:26:36;11.60;99.90
53422;DHT22;39319;52.944;5.928;2023-11-21T01:29:02;11.70;99.90
53422;DHT22;39319;52.944;5.928;2023-11-21T01:31:27;11.80;99.90
53422;DHT22;39319;52.944;5.928;2023-11-21T01:33:55;11.70;99.90
53422;DHT22;39319;52.944;5.928;2023-11-21T01:36:21;11.90;99.90
53422;DHT22;39319;52.944;5.928;2023-11-21T01:38:47;11.80;99.90
53422;DHT22;39319;52.944;5.928;2023-11-21T01:41:16;11.90;99.90
53422;DHT22;39319;52.944;5.928;2023-11-21T01:43:41;11.90;99.90
53422;DHT22;39319;52.944;5.928;2023-11-21T01:46:08;11.80;99.90
53422;DHT22;39319;52.944;5.928;2023-11-21T01:48:34;11.90;99.90
53422;DHT22;39319;52.944;5.928;2023-11-21T01:51:01;11.80;99.90
53422;DHT22;39319;52.944;5.928;2023-11-21T01:53:27;11.80;99.90
53422;DHT22;39319;52.944;5.928;2023-11-21T01:55:54;11.80;99.90
53422;DHT22;39319;52.944;5.928;2023-11-21T01:58:21;11.90;99.90
53422;DHT22;39319;52.944;5.928;2023-11-21T02:00:47;11.80;99.90
53422;DHT22;39319;52.944;5.928;2023-11-21T02:03:16;11.80;99.90
53422;DHT22;39319;52.944;5.928;2023-11-21T02:05:42;11.80;99.90
53422;DHT22;39319;52.944;5.928;2023-11-21T02:08:08;11.90;99.90
53422;DHT22;39319;52.944;5.928;2023-11-21T02:10:35;11.90;99.90
53422;DHT22;39319;52.944;5.928;2023-11-21T02:13:02;12.00;99.90
53422;DHT22;39319;52.944;5.928;2023-11-21T02:15:29;11.90;99.90
53422;DHT22;39319;52.944;5.928;2023-11-21T02:17:55;12.10;99.90
53422;DHT22;39319;52.944;5.928;2023-11-21T02:20:21;12.00;99.90
53422;DHT22;39319;52.944;5.928;2023-11-21T02:22:54;12.10;99.90
53422;DHT22;39319;52.944;5.928;2023-11-21T02:25:24;11.80;99.90
53422;DHT22;39319;52.944;5.928;2023-11-21T02:27:49;11.90;99.90
53422;DHT22;39319;52.944;5.928;2023-11-21T02:30:16;11.90;99.90
53422;DHT22;39319;52.944;5.928;2023-11-21T02:32:42;11.90;99.90
53422;DHT22;39319;52.944;5.928;2023-11-21T02:35:09;12.10;99.90
53422;DHT22;39319;52.944;5.928;2023-11-21T02:37:35;11.90;99.90
53422;DHT22;39319;52.944;5.928;2023-11-21T02:40:01;12.00;99.90
53422;DHT22;39319;52.944;5.928;2023-11-21T02:42:31;12.10;99.90
53422;DHT22;39319;52.944;5.928;2023-11-21T02:44:57;11.90;99.90
53422;DHT22;39319;52.944;5.928;2023-11-21T02:47:23;12.00;99.90
53422;DHT22;39319;52.944;5.928;2023-11-21T02:49:49;12.00;99.90
53422;DHT22;39319;52.944;5.928;2023-11-21T02:52:15;12.10;99.90
53422;DHT22;39319;52.944;5.928;2023-11-21T02:54:41;11.90;99.90
53422;DHT22;39319;52.944;5.928;2023-11-21T02:57:08;12.20;99.90
53422;DHT22;39319;52.944;5.928;2023-11-21T02:59:34;12.00;99.90
53422;DHT22;39319;52.944;5.928;2023-11-21T03:02:00;12.00;99.90
53422;DHT22;39319;52.944;5.928;2023-11-21T03:04:26;12.20;99.90
53422;DHT22;39319;52.944;5.928;2023-11-21T03:06:51;12.10;99.90
53422;DHT22;39319;52.944;5.928;2023-11-21T03:09:17;12.10;99.90
53422;DHT22;39319;52.944;5.928;2023-11-21T03:11:43;12.20;99.90
53422;DHT22;39319;52.944;5.928;2023-11-21T03:14:09;12.20;99.90
53422;DHT22;39319;52.944;5.928;2023-11-21T03:16:35;12.30;99.90
53422;DHT22;39319;52.944;5.928;2023-11-21T03:19:00;12.20;99.90
53422;DHT22;39319;52.944;5.928;2023-11-21T03:21:26;12.20;99.90
53422;DHT22;39319;52.944;5.928;2023-11-21T03:23:52;12.20;99.90
53422;DHT22;39319;52.944;5.928;2023-11-21T03:26:18;12.20;99.90
53422;DHT22;39319;52.944;5.928;2023-11-21T03:28:44;12.30;99.90
53422;DHT22;39319;52.944;5.928;2023-11-21T03:31:11;12.20;99.90
53422;DHT22;39319;52.944;5.928;2023-11-21T03:33:37;12.20;99.90
53422;DHT22;39319;52.944;5.928;2023-11-21T03:36:03;12.30;99.90
53422;DHT22;39319;52.944;5.928;2023-11-21T03:38:29;12.20;99.90
53422;DHT22;39319;52.944;5.928;2023-11-21T03:40:55;12.10;99.90
53422;DHT22;39319;52.944;5.928;2023-11-21T03:43:21;12.10;99.90
53422;DHT22;39319;52.944;5.928;2023-11-21T03:45:49;12.40;99.90
53422;DHT22;39319;52.944;5.928;2023-11-21T03:48:15;12.30;99.90
53422;DHT22;39319;52.944;5.928;2023-11-21T03:50:41;12.20;99.90
53422;DHT22;39319;52.944;5.928;2023-11-21T03:53:07;12.40;99.90
53422;DHT22;39319;52.944;5.928;2023-11-21T03:55:33;12.40;99.90
53422;DHT22;39319;52.944;5.928;2023-11-21T03:57:59;12.30;99.90
53422;DHT22;39319;52.944;5.928;2023-11-21T04:00:25;12.40;99.90
53422;DHT22;39319;52.944;5.928;2023-11-21T04:02:53;12.30;99.90
53422;DHT22;39319;52.944;5.928;2023-11-21T04:05:22;12.30;99.90
53422;DHT22;39319;52.944;5.928;2023-11-21T04:07:51;12.30;99.90
53422;DHT22;39319;52.944;5.928;2023-11-21T04:10:18;12.30;99.90
53422;DHT22;39319;52.944;5.928;2023-11-21T04:12:44;12.40;99.90
53422;DHT22;39319;52.944;5.928;2023-11-21T04:15:11;12.40;99.90
53422;DHT22;39319;52.944;5.928;2023-11-21T04:17:39;12.40;99.90
53422;DHT22;39319;52.944;5.928;2023-11-21T04:20:05;12.30;99.90
53422;DHT22;39319;52.944;5.928;2023-11-21T04:22:40;12.40;99.90
53422;DHT22;39319;52.944;5.928;2023-11-21T04:25:08;12.40;99.90
53422;DHT22;39319;52.944;5.928;2023-11-21T04:27:35;12.40;99.90
53422;DHT22;39319;52.944;5.928;2023-11-21T04:30:01;12.30;99.90
53422;DHT22;39319;52.944;5.928;2023-11-21T04:32:27;12.40;99.90
53422;DHT22;39319;52.944;5.928;2023-11-21T04:34:52;12.30;99.90
53422;DHT22;39319;52.944;5.928;2023-11-21T04:37:18;12.40;99.90
53422;DHT22;39319;52.944;5.928;2023-11-21T04:39:44;12.30;99.90
53422;DHT22;39319;52.944;5.928;2023-11-21T04:42:10;12.40;99.90
53422;DHT22;39319;52.944;5.928;2023-11-21T04:44:35;12.30;99.90
53422;DHT22;39319;52.944;5.928;2023-11-21T04:47:01;12.30;99.90
53422;DHT22;39319;52.944;5.928;2023-11-21T04:49:30;12.40;99.90
53422;DHT22;39319;52.944;5.928;2023-11-21T04:51:55;12.30;99.90
53422;DHT22;39319;52.944;5.928;2023-11-21T04:54:21;12.40;99.90
53422;DHT22;39319;52.944;5.928;2023-11-21T04:56:47;12.30;99.90
53422;DHT22;39319;52.944;5.928;2023-11-21T04:59:12;12.40;99.90
53422;DHT22;39319;52.944;5.928;2023-11-21T05:01:38;12.30;99.90
53422;DHT22;39319;52.944;5.928;2023-11-21T05:04:04;12.50;99.90
53422;DHT22;39319;52.944;5.928;2023-11-21T05:06:31;12.40;99.90
53422;DHT22;39319;52.944;5.928;2023-11-21T05:08:58;12.30;99.90
53422;DHT22;39319;52.944;5.928;2023-11-21T05:11:27;12.30;99.90
53422;DHT22;39319;52.944;5.928;2023-11-21T05:13:52;12.40;99.90
53422;DHT22;39319;52.944;5.928;2023-11-21T05:16:20;12.20;99.90
53422;DHT22;39319;52.944;5.928;2023-11-21T05:18:45;12.20;99.90
53422;DHT22;39319;52.944;5.928;2023-11-21T05:21:11;12.20;99.90
53422;DHT22;39319;52.944;5.928;2023-11-21T05:23:37;12.20;99.90
53422;DHT22;39319;52.944;5.928;2023-11-21T05:26:03;12.10;99.90
53422;DHT22;39319;52.944;5.928;2023-11-21T05:28:29;12.20;99.90
53422;DHT22;39319;52.944;5.928;2023-11-21T05:30:54;12.10;99.90
53422;DHT22;39319;52.944;5.928;2023-11-21T05:33:20;12.30;99.90
53422;DHT22;39319;52.944;5.928;2023-11-21T05:35:46;12.20;99.90
53422;DHT22;39319;52.944;5.928;2023-11-21T05:38:14;12.10;99.90
53422;DHT22;39319;52.944;5.928;2023-11-21T05:40:40;12.10;99.90
53422;DHT22;39319;52.944;5.928;2023-11-21T05:43:06;12.10;99.90
53422;DHT22;39319;52.944;5.928;2023-11-21T05:45:34;12.00;99.90
53422;DHT22;39319;52.944;5.928;2023-11-21T05:48:00;12.10;99.90
53422;DHT22;39319;52.944;5.928;2023-11-21T05:50:26;12.10;99.90
53422;DHT22;39319;52.944;5.928;2023-11-21T05:52:51;12.10;99.90
53422;DHT22;39319;52.944;5.928;2023-11-21T05:55:17;12.20;99.90
53422;DHT22;39319;52.944;5.928;2023-11-21T05:57:44;12.20;99.90
53422;DHT22;39319;52.944;5.928;2023-11-21T06:00:12;12.30;99.90
53422;DHT22;39319;52.944;5.928;2023-11-21T06:02:43;12.10;99.90
53422;DHT22;39319;52.944;5.928;2023-11-21T06:05:10;12.10;99.90
53422;DHT22;39319;52.944;5.928;2023-11-21T06:07:37;12.10;99.90
53422;DHT22;39319;52.944;5.928;2023-11-21T06:10:07;12.00;99.90
53422;DHT22;39319;52.944;5.928;2023-11-21T06:12:35;12.00;99.90
53422;DHT22;39319;52.944;5.928;2023-11-21T06:15:04;12.00;99.90
53422;DHT22;39319;52.944;5.928;2023-11-21T06:17:34;12.00;99.90
53422;DHT22;39319;52.944;5.928;2023-11-21T06:20:09;12.10;99.90
53422;DHT22;39319;52.944;5.928;2023-11-21T06:22:36;11.90;99.90
53422;DHT22;39319;52.944;5.928;2023-11-21T06:25:03;11.90;99.90
53422;DHT22;39319;52.944;5.928;2023-11-21T06:27:49;12.00;99.90
53422;DHT22;39319;52.944;5.928;2023-11-21T06:30:17;11.90;99.90
53422;DHT22;39319;52.944;5.928;2023-11-21T06:32:45;12.00;99.90
53422;DHT22;39319;52.944;5.928;2023-11-21T06:35:11;12.00;99.90
53422;DHT22;39319;52.944;5.928;2023-11-21T06:37:37;12.10;99.90
53422;DHT22;39319;52.944;5.928;2023-11-21T06:40:04;11.90;99.90
53422;DHT22;39319;52.944;5.928;2023-11-21T06:42:30;11.90;99.90
53422;DHT22;39319;52.944;5.928;2023-11-21T06:44:57;11.90;99.90
53422;DHT22;39319;52.944;5.928;2023-11-21T06:47:26;11.90;99.90
53422;DHT22;39319;52.944;5.928;2023-11-21T06:49:55;11.90;99.90
53422;DHT22;39319;52.944;5.928;2023-11-21T06:52:20;11.70;99.90
53422;DHT22;39319;52.944;5.928;2023-11-21T06:54:47;11.80;99.90
53422;DHT22;39319;52.944;5.928;2023-11-21T06:57:15;11.80;99.90
53422;DHT22;39319;52.944;5.928;2023-11-21T06:59:41;11.90;99.90
53422;DHT22;39319;52.944;5.928;2023-11-21T07:02:07;11.90;99.90
53422;DHT22;39319;52.944;5.928;2023-11-21T07:04:33;11.80;99.90
53422;DHT22;39319;52.944;5.928;2023-11-21T07:06:59;11.80;99.90
53422;DHT22;39319;52.944;5.928;2023-11-21T07:09:25;11.70;99.90
53422;DHT22;39319;52.944;5.928;2023-11-21T07:11:55;11.90;99.90
53422;DHT22;39319;52.944;5.928;2023-11-21T07:14:21;11.80;99.90
53422;DHT22;39319;52.944;5.928;2023-11-21T07:16:47;11.80;99.90
53422;DHT22;39319;52.944;5.928;2023-11-21T07:19:13;11.80;99.90
53422;DHT22;39319;52.944;5.928;2023-11-21T07:21:40;11.60;99.90
53422;DHT22;39319;52.944;5.928;2023-11-21T07:24:07;11.80;99.90
53422;DHT22;39319;52.944;5.928;2023-11-21T07:26:33;11.80;99.90
53422;DHT22;39319;52.944;5.928;2023-11-21T07:29:00;11.80;99.90
53422;DHT22;39319;52.944;5.928;2023-11-21T07:31:26;11.80;99.90
53422;DHT22;39319;52.944;5.928;2023-11-21T07:33:52;11.80;99.90
53422;DHT22;39319;52.944;5.928;2023-11-21T07:36:19;11.80;99.90
53422;DHT22;39319;52.944;5.928;2023-11-21T07:38:48;11.60;99.90
53422;DHT22;39319;52.944;5.928;2023-11-21T07:41:14;11.80;99.90
53422;DHT22;39319;52.944;5.928;2023-11-21T07:43:46;11.90;99.90
53422;DHT22;39319;52.944;5.928;2023-11-21T07:46:13;11.70;99.90
53422;DHT22;39319;52.944;5.928;2023-11-21T07:48:39;11.80;99.90
53422;DHT22;39319;52.944;5.928;2023-11-21T07:51:05;11.80;99.90
53422;DHT22;39319;52.944;5.928;2023-11-21T07:53:34;11.90;99.90
53422;DHT22;39319;52.944;5.928;2023-11-21T07:56:07;11.90;99.90
53422;DHT22;39319;52.944;5.928;2023-11-21T07:58:35;11.80;99.90
53422;DHT22;39319;52.944;5.928;2023-11-21T08:01:02;11.80;99.90
53422;DHT22;39319;52.944;5.928;2023-11-21T08:03:27;12.20;99.90
53422;DHT22;39319;52.944;5.928;2023-11-21T08:05:58;11.90;99.90
53422;DHT22;39319;52.944;5.928;2023-11-21T08:08:24;12.10;99.90
53422;DHT22;39319;52.944;5.928;2023-11-21T08:10:50;11.90;99.90
53422;DHT22;39319;52.944;5.928;2023-11-21T08:13:26;11.90;99.90
53422;DHT22;39319;52.944;5.928;2023-11-21T08:15:56;11.90;99.90
53422;DHT22;39319;52.944;5.928;2023-11-21T08:18:22;11.80;99.90
53422;DHT22;39319;52.944;5.928;2023-11-21T08:20:48;12.00;99.90
53422;DHT22;39319;52.944;5.928;2023-11-21T08:23:17;11.80;99.90
53422;DHT22;39319;52.944;5.928;2023-11-21T08:25:46;11.80;99.90
53422;DHT22;39319;52.944;5.928;2023-11-21T08:28:12;11.90;99.90
53422;DHT22;39319;52.944;5.928;2023-11-21T08:30:42;11.60;99.90
53422;DHT22;39319;52.944;5.928;2023-11-21T08:33:08;11.70;99.90
53422;DHT22;39319;52.944;5.928;2023-11-21T08:35:34;11.70;99.90
53422;DHT22;39319;52.944;5.928;2023-11-21T08:38:01;11.60;99.90
53422;DHT22;39319;52.944;5.928;2023-11-21T08:40:27;11.60;99.90
53422;DHT22;39319;52.944;5.928;2023-11-21T08:42:53;11.70;99.90
53422;DHT22;39319;52.944;5.928;2023-11-21T08:45:21;11.60;99.90
53422;DHT22;39319;52.944;5.928;2023-11-21T08:47:50;11.70;99.90
53422;DHT22;39319;52.944;5.928;2023-11-21T08:50:16;11.50;99.90
53422;DHT22;39319;52.944;5.928;2023-11-21T08:52:43;11.60;99.90
53422;DHT22;39319;52.944;5.928;2023-11-21T08:55:09;11.50;99.90
53422;DHT22;39319;52.944;5.928;2023-11-21T08:57:38;11.50;99.90
53422;DHT22;39319;52.944;5.928;2023-11-21T09:00:07;11.70;99.90
53422;DHT22;39319;52.944;5.928;2023-11-21T09:02:43;11.60;99.90
53422;DHT22;39319;52.944;5.928;2023-11-21T09:05:12;11.70;99.90
53422;DHT22;39319;52.944;5.928;2023-11-21T09:07:40;11.70;99.90
53422;DHT22;39319;52.944;5.928;2023-11-21T09:10:07;11.60;99.90
53422;DHT22;39319;52.944;5.928;2023-11-21T09:12:33;11.70;99.90
53422;DHT22;39319;52.944;5.928;2023-11-21T09:15:04;11.50;99.90
53422;DHT22;39319;52.944;5.928;2023-11-21T09:17:31;11.50;99.90
53422;DHT22;39319;52.944;5.928;2023-11-21T09:19:57;11.50;99.90
53422;DHT22;39319;52.944;5.928;2023-11-21T09:22:23;11.40;99.90
53422;DHT22;39319;52.944;5.928;2023-11-21T09:24:51;11.60;99.90
53422;DHT22;39319;52.944;5.928;2023-11-21T09:27:17;11.50;99.90
53422;DHT22;39319;52.944;5.928;2023-11-21T09:29:43;11.50;99.90
53422;DHT22;39319;52.944;5.928;2023-11-21T09:32:08;11.50;99.90
53422;DHT22;39319;52.944;5.928;2023-11-21T09:34:38;11.50;99.90
53422;DHT22;39319;52.944;5.928;2023-11-21T09:37:07;11.50;99.90
53422;DHT22;39319;52.944;5.928;2023-11-21T09:39:34;11.60;99.90
53422;DHT22;39319;52.944;5.928;2023-11-21T09:42:09;11.70;99.90
53422;DHT22;39319;52.944;5.928;2023-11-21T09:47:05;11.70;99.90
53422;DHT22;39319;52.944;5.928;2023-11-21T09:49:37;11.50;99.90
53422;DHT22;39319;52.944;5.928;2023-11-21T09:52:04;11.60;99.90
53422;DHT22;39319;52.944;5.928;2023-11-21T09:54:32;11.40;99.90
53422;DHT22;39319;52.944;5.928;2023-11-21T09:56:59;11.60;99.90
53422;DHT22;39319;52.944;5.928;2023-11-21T09:59:30;11.60;99.90
53422;DHT22;39319;52.944;5.928;2023-11-21T10:01:59;11.60;99.90
53422;DHT22;39319;52.944;5.928;2023-11-21T10:04:25;11.60;99.90
53422;DHT22;39319;52.944;5.928;2023-11-21T10:06:53;11.50;99.90
53422;DHT22;39319;52.944;5.928;2023-11-21T10:09:19;11.60;99.90
53422;DHT22;39319;52.944;5.928;2023-11-21T10:11:47;11.60;99.90
53422;DHT22;39319;52.944;5.928;2023-11-21T10:14:18;11.50;99.90
53422;DHT22;39319;52.944;5.928;2023-11-21T10:16:45;11.30;99.90
53422;DHT22;39319;52.944;5.928;2023-11-21T10:19:12;11.50;99.90
53422;DHT22;39319;52.944;5.928;2023-11-21T10:21:39;11.50;99.90
53422;DHT22;39319;52.944;5.928;2023-11-21T10:24:05;11.50;99.90
53422;DHT22;39319;52.944;5.928;2023-11-21T10:26:32;11.60;99.90
53422;DHT22;39319;52.944;5.928;2023-11-21T10:28:59;11.50;99.90
53422;DHT22;39319;52.944;5.928;2023-11-21T10:31:28;11.40;99.90
53422;DHT22;39319;52.944;5.928;2023-11-21T10:33:54;11.50;99.90
53422;DHT22;39319;52.944;5.928;2023-11-21T10:36:29;11.60;99.90
53422;DHT22;39319;52.944;5.928;2023-11-21T10:38:55;11.60;99.90
53422;DHT22;39319;52.944;5.928;2023-11-21T10:41:20;11.60;99.90
53422;DHT22;39319;52.944;5.928;2023-11-21T10:43:47;11.60;99.90
53422;DHT22;39319;52.944;5.928;2023-11-21T10:46:14;11.60;99.90
53422;DHT22;39319;52.944;5.928;2023-11-21T10:48:41;11.60;99.90
53422;DHT22;39319;52.944;5.928;2023-11-21T10:51:08;11.60;99.90
53422;DHT22;39319;52.944;5.928;2023-11-21T10:53:42;11.50;99.90
53422;DHT22;39319;52.944;5.928;2023-11-21T10:56:09;11.50;99.90
53422;DHT22;39319;52.944;5.928;2023-11-21T10:58:38;11.60;99.90
53422;DHT22;39319;52.944;5.928;2023-11-21T11:01:06;11.60;99.90
53422;DHT22;39319;52.944;5.928;2023-11-21T11:03:32;11.50;99.90
53422;DHT22;39319;52.944;5.928;2023-11-21T11:06:02;11.50;99.90
53422;DHT22;39319;52.944;5.928;2023-11-21T11:08:29;11.40;99.90
53422;DHT22;39319;52.944;5.928;2023-11-21T11:10:55;11.50;99.90
53422;DHT22;39319;52.944;5.928;2023-11-21T11:13:21;11.40;99.90
53422;DHT22;39319;52.944;5.928;2023-11-21T11:15:48;11.40;99.90
53422;DHT22;39319;52.944;5.928;2023-11-21T11:18:15;11.60;99.90
53422;DHT22;39319;52.944;5.928;2023-11-21T11:20:43;11.50;99.90
53422;DHT22;39319;52.944;5.928;2023-11-21T11:29:03;11.60;99.90
53422;DHT22;39319;52.944;5.928;2023-11-21T11:34:44;11.40;99.90
53422;DHT22;39319;52.944;5.928;2023-11-21T11:37:12;11.40;99.90
53422;DHT22;39319;52.944;5.928;2023-11-21T11:39:42;11.30;99.90
53422;DHT22;39319;52.944;5.928;2023-11-21T11:42:18;11.30;99.90
53422;DHT22;39319;52.944;5.928;2023-11-21T11:44:46;11.40;99.90
53422;DHT22;39319;52.944;5.928;2023-11-21T11:47:22;11.40;99.90
53422;DHT22;39319;52.944;5.928;2023-11-21T11:50:18;11.30;99.90
53422;DHT22;39319;52.944;5.928;2023-11-21T11:52:54;11.20;99.90
53422;DHT22;39319;52.944;5.928;2023-11-21T11:55:24;11.40;99.90
53422;DHT22;39319;52.944;5.928;2023-11-21T11:57:53;11.10;99.90
53422;DHT22;39319;52.944;5.928;2023-11-21T12:03:00;11.30;99.90
53422;DHT22;39319;52.944;5.928;2023-11-21T12:05:29;11.30;99.90
53422;DHT22;39319;52.944;5.928;2023-11-21T12:08:00;11.30;99.90
53422;DHT22;39319;52.944;5.928;2023-11-21T12:10:28;12.20;99.90
53422;DHT22;39319;52.944;5.928;2023-11-21T12:12:55;12.10;99.90
53422;DHT22;39319;52.944;5.928;2023-11-21T12:15:21;12.40;99.90
53422;DHT22;39319;52.944;5.928;2023-11-21T12:17:48;12.70;99.90
53422;DHT22;39319;52.944;5.928;2023-11-21T12:20:22;13.20;99.90
53422;DHT22;39319;52.944;5.928;2023-11-21T12:22:49;13.70;99.90
53422;DHT22;39319;52.944;5.928;2023-11-21T12:27:48;13.80;98.60
53422;DHT22;39319;52.944;5.928;2023-11-21T12:30:22;13.50;99.00
53422;DHT22;39319;52.944;5.928;2023-11-21T12:32:53;13.20;98.90
53422;DHT22;39319;52.944;5.928;2023-11-21T12:35:21;13.20;99.00
53422;DHT22;39319;52.944;5.928;2023-11-21T12:37:49;13.00;99.00
53422;DHT22;39319;52.944;5.928;2023-11-21T12:40:18;12.90;99.10
53422;DHT22;39319;52.944;5.928;2023-11-21T12:42:58;12.80;99.20
53422;DHT22;39319;52.944;5.928;2023-11-21T12:45:26;12.60;99.00
53422;DHT22;39319;52.944;5.928;2023-11-21T12:48:02;12.60;99.30
53422;DHT22;39319;52.944;5.928;2023-11-21T12:50:33;12.50;99.00
53422;DHT22;39319;52.944;5.928;2023-11-21T12:53:01;12.50;99.20
53422;DHT22;39319;52.944;5.928;2023-11-21T12:55:32;12.50;99.10
53422;DHT22;39319;52.944;5.928;2023-11-21T12:58:01;12.50;99.50
53422;DHT22;39319;52.944;5.928;2023-11-21T13:03:04;12.40;98.90
53422;DHT22;39319;52.944;5.928;2023-11-21T13:05:33;12.60;99.50
53422;DHT22;39319;52.944;5.928;2023-11-21T13:08:01;12.40;99.30
53422;DHT22;39319;52.944;5.928;2023-11-21T13:10:30;12.60;99.40
53422;DHT22;39319;52.944;5.928;2023-11-21T13:13:00;12.40;98.80
53422;DHT22;39319;52.944;5.928;2023-11-21T13:15:29;12.40;98.10
53422;DHT22;39319;52.944;5.928;2023-11-21T13:17:57;12.30;98.30
53422;DHT22;39319;52.944;5.928;2023-11-21T13:20:24;12.20;98.50
53422;DHT22;39319;52.944;5.928;2023-11-21T13:22:51;12.30;98.30
53422;DHT22;39319;52.944;5.928;2023-11-21T13:25:23;12.30;98.20
53422;DHT22;39319;52.944;5.928;2023-11-21T13:27:49;12.40;98.00
53422;DHT22;39319;52.944;5.928;2023-11-21T13:30:17;12.20;98.10
53422;DHT22;39319;52.944;5.928;2023-11-21T13:32:44;12.40;98.00
53422;DHT22;39319;52.944;5.928;2023-11-21T13:35:12;12.10;97.20
53422;DHT22;39319;52.944;5.928;2023-11-21T13:37:50;12.60;97.50
53422;DHT22;39319;52.944;5.928;2023-11-21T13:40:20;12.60;97.40
53422;DHT22;39319;52.944;5.928;2023-11-21T13:42:49;12.50;97.10
53422;DHT22;39319;52.944;5.928;2023-11-21T13:45:21;12.30;97.40
53422;DHT22;39319;52.944;5.928;2023-11-21T13:47:52;12.20;97.50
53422;DHT22;39319;52.944;5.928;2023-11-21T13:50:26;12.20;97.80
53422;DHT22;39319;52.944;5.928;2023-11-21T13:52:58;12.10;98.20
53422;DHT22;39319;52.944;5.928;2023-11-21T13:55:29;12.00;97.80
53422;DHT22;39319;52.944;5.928;2023-11-21T13:57:55;12.10;98.10
53422;DHT22;39319;52.944;5.928;2023-11-21T14:00:21;12.10;98.30
53422;DHT22;39319;52.944;5.928;2023-11-21T14:03:05;12.00;98.00
53422;DHT22;39319;52.944;5.928;2023-11-21T14:05:36;12.00;97.90
53422;DHT22;39319;52.944;5.928;2023-11-21T14:08:02;12.00;97.80
53422;DHT22;39319;52.944;5.928;2023-11-21T14:10:33;11.90;98.20
53422;DHT22;39319;52.944;5.928;2023-11-21T14:13:06;12.10;98.20
53422;DHT22;39319;52.944;5.928;2023-11-21T14:15:32;11.90;97.70
53422;DHT22;39319;52.944;5.928;2023-11-21T14:18:02;12.00;98.00
53422;DHT22;39319;52.944;5.928;2023-11-21T14:20:33;11.90;98.20
53422;DHT22;39319;52.944;5.928;2023-11-21T14:23:01;12.10;98.40
53422;DHT22;39319;52.944;5.928;2023-11-21T14:25:27;12.00;98.30
53422;DHT22;39319;52.944;5.928;2023-11-21T14:27:53;11.90;98.40
53422;DHT22;39319;52.944;5.928;2023-11-21T14:30:19;11.90;98.10
53422;DHT22;39319;52.944;5.928;2023-11-21T14:32:48;11.90;98.60
53422;DHT22;39319;52.944;5.928;2023-11-21T14:35:15;11.70;98.30
53422;DHT22;39319;52.944;5.928;2023-11-21T14:37:42;11.80;98.50
53422;DHT22;39319;52.944;5.928;2023-11-21T14:40:08;11.90;98.60
53422;DHT22;39319;52.944;5.928;2023-11-21T14:42:34;11.70;98.70
53422;DHT22;39319;52.944;5.928;2023-11-21T14:45:03;11.90;99.70
53422;DHT22;39319;52.944;5.928;2023-11-21T14:47:32;11.80;99.70
53422;DHT22;39319;52.944;5.928;2023-11-21T14:50:03;12.00;99.60
53422;DHT22;39319;52.944;5.928;2023-11-21T14:52:48;11.80;99.20
53422;DHT22;39319;52.944;5.928;2023-11-21T14:55:25;11.90;99.00
53422;DHT22;39319;52.944;5.928;2023-11-21T14:58:09;11.80;98.70
53422;DHT22;39319;52.944;5.928;2023-11-21T15:00:39;11.60;99.00
53422;DHT22;39319;52.944;5.928;2023-11-21T15:03:10;11.60;99.10
53422;DHT22;39319;52.944;5.928;2023-11-21T15:05:43;11.60;99.20
53422;DHT22;39319;52.944;5.928;2023-11-21T15:08:09;11.60;98.80
53422;DHT22;39319;52.944;5.928;2023-11-21T15:10:47;11.60;99.00
53422;DHT22;39319;52.944;5.928;2023-11-21T15:13:18;11.40;98.90
53422;DHT22;39319;52.944;5.928;2023-11-21T15:15:44;11.20;98.50
53422;DHT22;39319;52.944;5.928;2023-11-21T15:18:10;11.20;98.40
53422;DHT22;39319;52.944;5.928;2023-11-21T15:20:42;11.30;98.80
53422;DHT22;39319;52.944;5.928;2023-11-21T15:23:09;11.30;98.80
53422;DHT22;39319;52.944;5.928;2023-11-21T15:25:34;11.30;98.70
53422;DHT22;39319;52.944;5.928;2023-11-21T15:28:02;11.20;98.90
53422;DHT22;39319;52.944;5.928;2023-11-21T15:30:30;11.20;99.10
53422;DHT22;39319;52.944;5.928;2023-11-21T15:33:00;11.30;99.30
53422;DHT22;39319;52.944;5.928;2023-11-21T15:35:26;11.10;99.10
53422;DHT22;39319;52.944;5.928;2023-11-21T15:37:54;11.10;99.20
53422;DHT22;39319;52.944;5.928;2023-11-21T15:40:25;11.10;99.10
53422;DHT22;39319;52.944;5.928;2023-11-21T15:42:50;11.00;99.20
53422;DHT22;39319;52.944;5.928;2023-11-21T15:45:16;11.00;99.40
53422;DHT22;39319;52.944;5.928;2023-11-21T15:47:45;10.90;99.30
53422;DHT22;39319;52.944;5.928;2023-11-21T15:50:11;9.80;99.90
53422;DHT22;39319;52.944;5.928;2023-11-21T15:52:37;10.90;99.80